sensor_id;sensor_type;location;lat;lon;timestamp;P1;durP1;ratioP1;P2;durP2;ratioP2
85701;SDS011;76139;50.888;3.882;2024-02-16T00:00:23;3.85;;;2.33;;
85701;SDS011;76139;50.888;3.882;2024-02-16T00:02:49;4.93;;;2.75;;
85701;SDS011;76139;50.888;3.882;2024-02-16T00:05:15;4.97;;;2.70;;
85701;SDS011;76139;50.888;3.882;2024-02-16T00:07:41;4.47;;;2.60;;
85701;SDS011;76139;50.888;3.882;2024-02-16T00:10:07;3.92;;;2.53;;
85701;SDS011;76139;50.888;3.882;2024-02-16T00:12:37;9.10;;;3.10;;
85701;SDS011;76139;50.888;3.882;2024-02-16T00:15:05;6.35;;;3.25;;
85701;SDS011;76139;50.888;3.882;2024-02-16T00:17:31;6.63;;;3.72;;
85701;SDS011;76139;50.888;3.882;2024-02-16T00:19:58;6.20;;;2.90;;
85701;SDS011;76139;50.888;3.882;2024-02-16T00:22:25;5.70;;;3.35;;
85701;SDS011;76139;50.888;3.882;2024-02-16T00:24:51;8.52;;;1.98;;
85701;SDS011;76139;50.888;3.882;2024-02-16T00:27:17;5.57;;;2.97;;
85701;SDS011;76139;50.888;3.882;2024-02-16T00:29:43;6.78;;;4.07;;
85701;SDS011;76139;50.888;3.882;2024-02-16T00:32:09;5.70;;;3.42;;
85701;SDS011;76139;50.888;3.882;2024-02-16T00:34:35;4.63;;;2.50;;
85701;SDS011;76139;50.888;3.882;2024-02-16T00:37:01;5.55;;;3.13;;
85701;SDS011;76139;50.888;3.882;2024-02-16T00:39:29;4.25;;;2.08;;
85701;SDS011;76139;50.888;3.882;2024-02-16T00:41:55;8.35;;;3.65;;
85701;SDS011;76139;50.888;3.882;2024-02-16T00:44:21;5.55;;;3.00;;
85701;SDS011;76139;50.888;3.882;2024-02-16T00:46:47;4.88;;;2.72;;
85701;SDS011;76139;50.888;3.882;2024-02-16T00:49:12;5.68;;;3.00;;
85701;SDS011;76139;50.888;3.882;2024-02-16T00:51:39;6.10;;;3.60;;
85701;SDS011;76139;50.888;3.882;2024-02-16T00:54:05;5.03;;;3.15;;
85701;SDS011;76139;50.888;3.882;2024-02-16T00:56:31;5.45;;;2.60;;
85701;SDS011;76139;50.888;3.882;2024-02-16T00:58:57;4.28;;;2.92;;
85701;SDS011;76139;50.888;3.882;2024-02-16T01:01:23;6.40;;;2.72;;
85701;SDS011;76139;50.888;3.882;2024-02-16T01:03:51;4.57;;;2.35;;
85701;SDS011;76139;50.888;3.882;2024-02-16T01:06:18;6.13;;;2.92;;
85701;SDS011;76139;50.888;3.882;2024-02-16T01:08:44;4.80;;;2.88;;
85701;SDS011;76139;50.888;3.882;2024-02-16T01:11:09;4.93;;;2.63;;
85701;SDS011;76139;50.888;3.882;2024-02-16T01:13:35;5.85;;;3.05;;
85701;SDS011;76139;50.888;3.882;2024-02-16T01:16:02;6.75;;;3.70;;
85701;SDS011;76139;50.888;3.882;2024-02-16T01:18:28;5.25;;;3.03;;
85701;SDS011;76139;50.888;3.882;2024-02-16T01:20:55;5.40;;;2.67;;
85701;SDS011;76139;50.888;3.882;2024-02-16T01:23:21;5.85;;;3.35;;
85701;SDS011;76139;50.888;3.882;2024-02-16T01:25:48;3.33;;;2.20;;
85701;SDS011;76139;50.888;3.882;2024-02-16T01:28:14;3.30;;;2.05;;
85701;SDS011;76139;50.888;3.882;2024-02-16T01:30:41;6.82;;;3.30;;
85701;SDS011;76139;50.888;3.882;2024-02-16T01:33:07;5.38;;;2.63;;
85701;SDS011;76139;50.888;3.882;2024-02-16T01:35:33;5.70;;;3.40;;
85701;SDS011;76139;50.888;3.882;2024-02-16T01:37:59;7.22;;;3.20;;
85701;SDS011;76139;50.888;3.882;2024-02-16T01:40:26;6.75;;;3.55;;
85701;SDS011;76139;50.888;3.882;2024-02-16T01:42:53;5.60;;;3.20;;
85701;SDS011;76139;50.888;3.882;2024-02-16T01:45:19;5.43;;;2.70;;
85701;SDS011;76139;50.888;3.882;2024-02-16T01:47:45;4.65;;;2.38;;
85701;SDS011;76139;50.888;3.882;2024-02-16T01:50:14;5.22;;;3.40;;
85701;SDS011;76139;50.888;3.882;2024-02-16T01:52:45;6.47;;;3.15;;
85701;SDS011;76139;50.888;3.882;2024-02-16T01:55:11;6.55;;;3.05;;
85701;SDS011;76139;50.888;3.882;2024-02-16T01:57:45;5.90;;;3.40;;
85701;SDS011;76139;50.888;3.882;2024-02-16T02:00:12;5.63;;;2.80;;
85701;SDS011;76139;50.888;3.882;2024-02-16T02:02:40;6.20;;;2.95;;
85701;SDS011;76139;50.888;3.882;2024-02-16T02:05:09;7.50;;;2.85;;
85701;SDS011;76139;50.888;3.882;2024-02-16T02:07:34;5.15;;;2.88;;
85701;SDS011;76139;50.888;3.882;2024-02-16T02:10:00;6.00;;;3.28;;
85701;SDS011;76139;50.888;3.882;2024-02-16T02:12:27;7.03;;;3.38;;
85701;SDS011;76139;50.888;3.882;2024-02-16T02:14:52;7.95;;;2.80;;
85701;SDS011;76139;50.888;3.882;2024-02-16T02:17:18;5.88;;;2.72;;
85701;SDS011;76139;50.888;3.882;2024-02-16T02:19:47;6.43;;;2.88;;
85701;SDS011;76139;50.888;3.882;2024-02-16T02:22:16;7.13;;;2.85;;
85701;SDS011;76139;50.888;3.882;2024-02-16T02:24:45;4.60;;;3.17;;
85701;SDS011;76139;50.888;3.882;2024-02-16T02:27:12;6.43;;;3.17;;
85701;SDS011;76139;50.888;3.882;2024-02-16T02:29:39;5.13;;;2.83;;
85701;SDS011;76139;50.888;3.882;2024-02-16T02:32:05;6.57;;;2.90;;
85701;SDS011;76139;50.888;3.882;2024-02-16T02:34:32;5.70;;;3.35;;
85701;SDS011;76139;50.888;3.882;2024-02-16T02:36:58;5.05;;;2.58;;
85701;SDS011;76139;50.888;3.882;2024-02-16T02:39:23;5.82;;;2.85;;
85701;SDS011;76139;50.888;3.882;2024-02-16T02:41:49;5.72;;;2.70;;
85701;SDS011;76139;50.888;3.882;2024-02-16T02:44:15;5.28;;;3.10;;
85701;SDS011;76139;50.888;3.882;2024-02-16T02:46:41;6.30;;;3.45;;
85701;SDS011;76139;50.888;3.882;2024-02-16T02:49:07;5.85;;;2.75;;
85701;SDS011;76139;50.888;3.882;2024-02-16T02:51:33;5.10;;;2.78;;
85701;SDS011;76139;50.888;3.882;2024-02-16T02:54:00;6.75;;;3.17;;
85701;SDS011;76139;50.888;3.882;2024-02-16T02:56:26;4.50;;;2.75;;
85701;SDS011;76139;50.888;3.882;2024-02-16T02:58:51;5.70;;;2.30;;
85701;SDS011;76139;50.888;3.882;2024-02-16T03:01:17;5.57;;;3.15;;
85701;SDS011;76139;50.888;3.882;2024-02-16T03:03:45;4.88;;;2.90;;
85701;SDS011;76139;50.888;3.882;2024-02-16T03:06:11;7.03;;;3.80;;
85701;SDS011;76139;50.888;3.882;2024-02-16T03:08:37;4.90;;;2.95;;
85701;SDS011;76139;50.888;3.882;2024-02-16T03:11:03;7.65;;;3.28;;
85701;SDS011;76139;50.888;3.882;2024-02-16T03:13:29;6.07;;;3.05;;
85701;SDS011;76139;50.888;3.882;2024-02-16T03:15:56;5.90;;;3.38;;
85701;SDS011;76139;50.888;3.882;2024-02-16T03:18:22;5.30;;;3.25;;
85701;SDS011;76139;50.888;3.882;2024-02-16T03:20:48;7.75;;;3.10;;
85701;SDS011;76139;50.888;3.882;2024-02-16T03:23:15;5.03;;;3.20;;
85701;SDS011;76139;50.888;3.882;2024-02-16T03:25:41;5.50;;;3.25;;
85701;SDS011;76139;50.888;3.882;2024-02-16T03:28:13;3.97;;;2.80;;
85701;SDS011;76139;50.888;3.882;2024-02-16T03:30:39;5.85;;;2.97;;
85701;SDS011;76139;50.888;3.882;2024-02-16T03:33:05;7.30;;;3.40;;
85701;SDS011;76139;50.888;3.882;2024-02-16T03:35:31;8.05;;;3.35;;
85701;SDS011;76139;50.888;3.882;2024-02-16T03:37:56;6.88;;;4.03;;
85701;SDS011;76139;50.888;3.882;2024-02-16T03:40:22;6.80;;;3.85;;
85701;SDS011;76139;50.888;3.882;2024-02-16T03:42:50;6.38;;;3.92;;
85701;SDS011;76139;50.888;3.882;2024-02-16T03:45:16;4.97;;;3.05;;
85701;SDS011;76139;50.888;3.882;2024-02-16T03:47:42;5.00;;;2.78;;
85701;SDS011;76139;50.888;3.882;2024-02-16T03:50:08;7.13;;;3.88;;
85701;SDS011;76139;50.888;3.882;2024-02-16T03:52:34;6.88;;;3.80;;
85701;SDS011;76139;50.888;3.882;2024-02-16T03:54:59;7.45;;;3.72;;
85701;SDS011;76139;50.888;3.882;2024-02-16T03:57:26;6.50;;;3.40;;
85701;SDS011;76139;50.888;3.882;2024-02-16T03:59:52;7.65;;;3.70;;
85701;SDS011;76139;50.888;3.882;2024-02-16T04:02:18;7.28;;;4.03;;
85701;SDS011;76139;50.888;3.882;2024-02-16T04:04:44;6.38;;;3.75;;
85701;SDS011;76139;50.888;3.882;2024-02-16T04:07:10;7.18;;;3.80;;
85701;SDS011;76139;50.888;3.882;2024-02-16T04:09:36;6.78;;;3.90;;
85701;SDS011;76139;50.888;3.882;2024-02-16T04:12:01;5.97;;;3.60;;
85701;SDS011;76139;50.888;3.882;2024-02-16T04:14:30;6.47;;;3.65;;
85701;SDS011;76139;50.888;3.882;2024-02-16T04:16:56;5.20;;;2.80;;
85701;SDS011;76139;50.888;3.882;2024-02-16T04:19:28;7.63;;;3.97;;
85701;SDS011;76139;50.888;3.882;2024-02-16T04:21:54;5.68;;;3.30;;
85701;SDS011;76139;50.888;3.882;2024-02-16T04:24:20;7.65;;;4.03;;
85701;SDS011;76139;50.888;3.882;2024-02-16T04:26:46;6.43;;;3.55;;
85701;SDS011;76139;50.888;3.882;2024-02-16T04:29:12;7.13;;;4.38;;
85701;SDS011;76139;50.888;3.882;2024-02-16T04:31:41;7.75;;;3.80;;
85701;SDS011;76139;50.888;3.882;2024-02-16T04:34:10;3.90;;;2.53;;
85701;SDS011;76139;50.888;3.882;2024-02-16T04:36:36;6.82;;;3.92;;
85701;SDS011;76139;50.888;3.882;2024-02-16T04:39:02;5.13;;;2.83;;
85701;SDS011;76139;50.888;3.882;2024-02-16T04:41:28;6.43;;;4.00;;
85701;SDS011;76139;50.888;3.882;2024-02-16T04:43:54;6.15;;;3.35;;
85701;SDS011;76139;50.888;3.882;2024-02-16T04:46:19;6.28;;;3.95;;
85701;SDS011;76139;50.888;3.882;2024-02-16T04:48:46;4.80;;;3.15;;
85701;SDS011;76139;50.888;3.882;2024-02-16T04:51:12;6.57;;;3.67;;
85701;SDS011;76139;50.888;3.882;2024-02-16T04:53:38;7.90;;;3.83;;
85701;SDS011;76139;50.888;3.882;2024-02-16T04:56:04;6.25;;;3.75;;
85701;SDS011;76139;50.888;3.882;2024-02-16T04:58:30;5.80;;;3.67;;
85701;SDS011;76139;50.888;3.882;2024-02-16T05:00:56;6.53;;;3.60;;
85701;SDS011;76139;50.888;3.882;2024-02-16T05:03:22;6.47;;;3.60;;
85701;SDS011;76139;50.888;3.882;2024-02-16T05:05:48;8.40;;;3.90;;
85701;SDS011;76139;50.888;3.882;2024-02-16T05:08:14;6.18;;;3.85;;
85701;SDS011;76139;50.888;3.882;2024-02-16T05:10:40;5.38;;;2.95;;
85701;SDS011;76139;50.888;3.882;2024-02-16T05:13:06;8.02;;;3.67;;
85701;SDS011;76139;50.888;3.882;2024-02-16T05:15:31;5.50;;;3.00;;
85701;SDS011;76139;50.888;3.882;2024-02-16T05:17:57;5.22;;;2.90;;
85701;SDS011;76139;50.888;3.882;2024-02-16T05:20:23;8.00;;;3.60;;
85701;SDS011;76139;50.888;3.882;2024-02-16T05:22:49;7.00;;;3.75;;
85701;SDS011;76139;50.888;3.882;2024-02-16T05:25:15;7.10;;;3.67;;
85701;SDS011;76139;50.888;3.882;2024-02-16T05:27:45;8.73;;;3.92;;
85701;SDS011;76139;50.888;3.882;2024-02-16T05:30:12;9.00;;;3.83;;
85701;SDS011;76139;50.888;3.882;2024-02-16T05:32:40;9.55;;;4.28;;
85701;SDS011;76139;50.888;3.882;2024-02-16T05:35:07;6.38;;;3.28;;
85701;SDS011;76139;50.888;3.882;2024-02-16T05:37:45;8.25;;;3.75;;
85701;SDS011;76139;50.888;3.882;2024-02-16T05:40:14;8.50;;;3.80;;
85701;SDS011;76139;50.888;3.882;2024-02-16T05:42:52;6.93;;;3.70;;
85701;SDS011;76139;50.888;3.882;2024-02-16T05:45:18;7.43;;;3.95;;
85701;SDS011;76139;50.888;3.882;2024-02-16T05:47:46;6.88;;;3.60;;
85701;SDS011;76139;50.888;3.882;2024-02-16T05:50:12;10.20;;;3.75;;
85701;SDS011;76139;50.888;3.882;2024-02-16T05:52:39;6.05;;;3.25;;
85701;SDS011;76139;50.888;3.882;2024-02-16T05:55:06;7.10;;;3.33;;
85701;SDS011;76139;50.888;3.882;2024-02-16T05:57:33;6.20;;;3.67;;
85701;SDS011;76139;50.888;3.882;2024-02-16T05:59:58;5.68;;;3.47;;
85701;SDS011;76139;50.888;3.882;2024-02-16T06:02:24;9.05;;;3.83;;
85701;SDS011;76139;50.888;3.882;2024-02-16T06:04:52;7.57;;;3.80;;
85701;SDS011;76139;50.888;3.882;2024-02-16T06:07:18;7.32;;;3.80;;
85701;SDS011;76139;50.888;3.882;2024-02-16T06:09:44;8.30;;;3.78;;
85701;SDS011;76139;50.888;3.882;2024-02-16T06:12:09;6.82;;;3.90;;
85701;SDS011;76139;50.888;3.882;2024-02-16T06:14:37;6.72;;;3.42;;
85701;SDS011;76139;50.888;3.882;2024-02-16T06:17:03;7.18;;;3.92;;
85701;SDS011;76139;50.888;3.882;2024-02-16T06:19:29;6.95;;;3.80;;
85701;SDS011;76139;50.888;3.882;2024-02-16T06:21:55;7.00;;;3.40;;
85701;SDS011;76139;50.888;3.882;2024-02-16T06:24:22;6.50;;;3.53;;
85701;SDS011;76139;50.888;3.882;2024-02-16T06:26:49;7.22;;;3.42;;
85701;SDS011;76139;50.888;3.882;2024-02-16T06:29:16;14.52;;;4.00;;
85701;SDS011;76139;50.888;3.882;2024-02-16T06:31:44;7.03;;;3.83;;
85701;SDS011;76139;50.888;3.882;2024-02-16T06:34:11;8.05;;;4.07;;
85701;SDS011;76139;50.888;3.882;2024-02-16T06:36:36;6.82;;;3.53;;
85701;SDS011;76139;50.888;3.882;2024-02-16T06:39:03;8.65;;;3.97;;
85701;SDS011;76139;50.888;3.882;2024-02-16T06:41:29;7.15;;;3.78;;
85701;SDS011;76139;50.888;3.882;2024-02-16T06:43:54;7.53;;;3.53;;
85701;SDS011;76139;50.888;3.882;2024-02-16T06:46:20;9.65;;;4.13;;
85701;SDS011;76139;50.888;3.882;2024-02-16T06:48:47;7.03;;;3.53;;
85701;SDS011;76139;50.888;3.882;2024-02-16T06:51:13;10.18;;;4.20;;
85701;SDS011;76139;50.888;3.882;2024-02-16T06:53:39;7.32;;;4.00;;
85701;SDS011;76139;50.888;3.882;2024-02-16T06:56:04;8.07;;;3.88;;
85701;SDS011;76139;50.888;3.882;2024-02-16T06:58:30;8.68;;;3.88;;
85701;SDS011;76139;50.888;3.882;2024-02-16T07:00:56;5.22;;;3.38;;
85701;SDS011;76139;50.888;3.882;2024-02-16T07:03:23;9.50;;;3.47;;
85701;SDS011;76139;50.888;3.882;2024-02-16T07:05:49;7.75;;;3.78;;
85701;SDS011;76139;50.888;3.882;2024-02-16T07:08:14;7.32;;;3.80;;
85701;SDS011;76139;50.888;3.882;2024-02-16T07:10:40;9.13;;;3.97;;
85701;SDS011;76139;50.888;3.882;2024-02-16T07:13:06;7.03;;;3.58;;
85701;SDS011;76139;50.888;3.882;2024-02-16T07:15:31;11.38;;;4.43;;
85701;SDS011;76139;50.888;3.882;2024-02-16T07:17:57;8.00;;;4.28;;
85701;SDS011;76139;50.888;3.882;2024-02-16T07:20:23;5.03;;;3.28;;
85701;SDS011;76139;50.888;3.882;2024-02-16T07:22:49;6.97;;;3.90;;
85701;SDS011;76139;50.888;3.882;2024-02-16T07:25:16;7.40;;;4.90;;
85701;SDS011;76139;50.888;3.882;2024-02-16T07:27:42;9.23;;;3.97;;
85701;SDS011;76139;50.888;3.882;2024-02-16T07:30:08;10.07;;;4.55;;
85701;SDS011;76139;50.888;3.882;2024-02-16T07:32:36;8.45;;;4.47;;
85701;SDS011;76139;50.888;3.882;2024-02-16T07:35:01;6.18;;;3.42;;
85701;SDS011;76139;50.888;3.882;2024-02-16T07:37:28;7.95;;;3.65;;
85701;SDS011;76139;50.888;3.882;2024-02-16T07:39:54;9.30;;;4.40;;
85701;SDS011;76139;50.888;3.882;2024-02-16T07:42:19;7.90;;;4.32;;
85701;SDS011;76139;50.888;3.882;2024-02-16T07:44:45;11.27;;;4.55;;
85701;SDS011;76139;50.888;3.882;2024-02-16T07:47:11;8.05;;;4.32;;
85701;SDS011;76139;50.888;3.882;2024-02-16T07:49:38;6.45;;;3.35;;
85701;SDS011;76139;50.888;3.882;2024-02-16T07:52:04;9.77;;;4.13;;
85701;SDS011;76139;50.888;3.882;2024-02-16T07:54:30;8.43;;;4.40;;
85701;SDS011;76139;50.888;3.882;2024-02-16T07:56:56;8.50;;;4.53;;
85701;SDS011;76139;50.888;3.882;2024-02-16T07:59:24;9.98;;;4.40;;
85701;SDS011;76139;50.888;3.882;2024-02-16T08:01:50;13.68;;;4.47;;
85701;SDS011;76139;50.888;3.882;2024-02-16T08:04:16;8.63;;;4.03;;
85701;SDS011;76139;50.888;3.882;2024-02-16T08:06:41;11.10;;;4.88;;
85701;SDS011;76139;50.888;3.882;2024-02-16T08:09:07;12.35;;;4.90;;
85701;SDS011;76139;50.888;3.882;2024-02-16T08:11:33;10.15;;;4.57;;
85701;SDS011;76139;50.888;3.882;2024-02-16T08:13:58;7.68;;;4.15;;
85701;SDS011;76139;50.888;3.882;2024-02-16T08:16:26;7.90;;;4.15;;
85701;SDS011;76139;50.888;3.882;2024-02-16T08:18:52;9.43;;;4.35;;
85701;SDS011;76139;50.888;3.882;2024-02-16T08:21:18;4.55;;;2.90;;
85701;SDS011;76139;50.888;3.882;2024-02-16T08:23:44;12.85;;;4.20;;
85701;SDS011;76139;50.888;3.882;2024-02-16T08:26:09;10.00;;;4.35;;
85701;SDS011;76139;50.888;3.882;2024-02-16T08:28:35;9.38;;;4.05;;
85701;SDS011;76139;50.888;3.882;2024-02-16T08:31:01;7.22;;;4.07;;
85701;SDS011;76139;50.888;3.882;2024-02-16T08:33:26;7.57;;;3.63;;
85701;SDS011;76139;50.888;3.882;2024-02-16T08:35:52;7.78;;;3.42;;
85701;SDS011;76139;50.888;3.882;2024-02-16T08:38:18;8.55;;;4.35;;
85701;SDS011;76139;50.888;3.882;2024-02-16T08:40:43;9.32;;;4.18;;
85701;SDS011;76139;50.888;3.882;2024-02-16T08:43:09;7.65;;;3.08;;
85701;SDS011;76139;50.888;3.882;2024-02-16T08:45:35;10.73;;;3.60;;
85701;SDS011;76139;50.888;3.882;2024-02-16T08:48:00;9.35;;;5.15;;
85701;SDS011;76139;50.888;3.882;2024-02-16T08:50:28;8.10;;;3.90;;
85701;SDS011;76139;50.888;3.882;2024-02-16T08:52:54;8.00;;;3.97;;
85701;SDS011;76139;50.888;3.882;2024-02-16T08:55:20;8.75;;;4.25;;
85701;SDS011;76139;50.888;3.882;2024-02-16T08:57:46;11.25;;;4.45;;
85701;SDS011;76139;50.888;3.882;2024-02-16T09:00:13;8.82;;;4.43;;
85701;SDS011;76139;50.888;3.882;2024-02-16T09:02:40;9.55;;;5.35;;
85701;SDS011;76139;50.888;3.882;2024-02-16T09:05:06;9.57;;;4.47;;
85701;SDS011;76139;50.888;3.882;2024-02-16T09:07:34;7.72;;;4.38;;
85701;SDS011;76139;50.888;3.882;2024-02-16T09:10:00;8.25;;;4.13;;
85701;SDS011;76139;50.888;3.882;2024-02-16T09:12:26;9.55;;;5.03;;
85701;SDS011;76139;50.888;3.882;2024-02-16T09:14:52;8.20;;;4.35;;
85701;SDS011;76139;50.888;3.882;2024-02-16T09:17:18;9.10;;;4.47;;
85701;SDS011;76139;50.888;3.882;2024-02-16T09:19:45;10.63;;;5.93;;
85701;SDS011;76139;50.888;3.882;2024-02-16T09:22:11;8.95;;;3.90;;
85701;SDS011;76139;50.888;3.882;2024-02-16T09:24:36;10.75;;;4.95;;
85701;SDS011;76139;50.888;3.882;2024-02-16T09:27:02;9.95;;;4.97;;
85701;SDS011;76139;50.888;3.882;2024-02-16T09:29:29;9.35;;;5.20;;
85701;SDS011;76139;50.888;3.882;2024-02-16T09:31:55;9.93;;;4.97;;
85701;SDS011;76139;50.888;3.882;2024-02-16T09:34:21;8.82;;;5.32;;
85701;SDS011;76139;50.888;3.882;2024-02-16T09:36:46;13.05;;;5.80;;
85701;SDS011;76139;50.888;3.882;2024-02-16T09:39:12;11.27;;;5.28;;
85701;SDS011;76139;50.888;3.882;2024-02-16T09:41:39;15.80;;;6.60;;
85701;SDS011;76139;50.888;3.882;2024-02-16T09:44:06;12.20;;;5.93;;
85701;SDS011;76139;50.888;3.882;2024-02-16T09:46:32;11.18;;;6.38;;
85701;SDS011;76139;50.888;3.882;2024-02-16T09:49:02;12.13;;;6.05;;
85701;SDS011;76139;50.888;3.882;2024-02-16T09:51:29;11.80;;;8.52;;
85701;SDS011;76139;50.888;3.882;2024-02-16T09:53:55;14.35;;;7.68;;
85701;SDS011;76139;50.888;3.882;2024-02-16T09:56:21;14.23;;;6.85;;
85701;SDS011;76139;50.888;3.882;2024-02-16T09:58:49;11.70;;;6.55;;
85701;SDS011;76139;50.888;3.882;2024-02-16T10:01:20;12.23;;;6.45;;
85701;SDS011;76139;50.888;3.882;2024-02-16T10:03:47;15.13;;;6.63;;
85701;SDS011;76139;50.888;3.882;2024-02-16T10:06:14;15.05;;;7.07;;
85701;SDS011;76139;50.888;3.882;2024-02-16T10:08:52;14.45;;;7.50;;
85701;SDS011;76139;50.888;3.882;2024-02-16T10:11:19;13.32;;;7.28;;
85701;SDS011;76139;50.888;3.882;2024-02-16T10:16:25;14.40;;;6.90;;
85701;SDS011;76139;50.888;3.882;2024-02-16T10:18:54;10.63;;;6.18;;
85701;SDS011;76139;50.888;3.882;2024-02-16T10:21:30;12.25;;;6.97;;
85701;SDS011;76139;50.888;3.882;2024-02-16T10:24:05;13.98;;;7.90;;
85701;SDS011;76139;50.888;3.882;2024-02-16T10:26:33;9.95;;;6.22;;
85701;SDS011;76139;50.888;3.882;2024-02-16T10:29:03;13.27;;;7.47;;
85701;SDS011;76139;50.888;3.882;2024-02-16T10:31:31;13.77;;;6.78;;
85701;SDS011;76139;50.888;3.882;2024-02-16T10:34:01;16.35;;;8.43;;
85701;SDS011;76139;50.888;3.882;2024-02-16T10:36:31;16.02;;;8.65;;
85701;SDS011;76139;50.888;3.882;2024-02-16T10:39:02;17.23;;;9.23;;
85701;SDS011;76139;50.888;3.882;2024-02-16T10:41:33;18.15;;;9.18;;
85701;SDS011;76139;50.888;3.882;2024-02-16T10:44:00;14.25;;;9.35;;
85701;SDS011;76139;50.888;3.882;2024-02-16T10:46:28;18.15;;;10.10;;
85701;SDS011;76139;50.888;3.882;2024-02-16T10:48:54;15.00;;;9.55;;
85701;SDS011;76139;50.888;3.882;2024-02-16T10:51:21;15.10;;;8.15;;
85701;SDS011;76139;50.888;3.882;2024-02-16T10:53:53;13.68;;;7.85;;
85701;SDS011;76139;50.888;3.882;2024-02-16T10:56:28;14.68;;;9.68;;
85701;SDS011;76139;50.888;3.882;2024-02-16T10:59:04;16.58;;;9.27;;
85701;SDS011;76139;50.888;3.882;2024-02-16T11:01:33;16.83;;;10.40;;
85701;SDS011;76139;50.888;3.882;2024-02-16T11:04:06;14.50;;;9.35;;
85701;SDS011;76139;50.888;3.882;2024-02-16T11:06:44;15.60;;;10.38;;
85701;SDS011;76139;50.888;3.882;2024-02-16T11:09:36;19.30;;;10.13;;
85701;SDS011;76139;50.888;3.882;2024-02-16T11:12:05;18.17;;;11.27;;
85701;SDS011;76139;50.888;3.882;2024-02-16T11:14:37;18.05;;;10.15;;
85701;SDS011;76139;50.888;3.882;2024-02-16T11:17:07;18.23;;;12.80;;
85701;SDS011;76139;50.888;3.882;2024-02-16T11:19:37;18.15;;;10.40;;
85701;SDS011;76139;50.888;3.882;2024-02-16T11:22:05;20.20;;;12.30;;
85701;SDS011;76139;50.888;3.882;2024-02-16T11:24:35;21.83;;;12.55;;
85701;SDS011;76139;50.888;3.882;2024-02-16T11:27:04;18.92;;;12.32;;
85701;SDS011;76139;50.888;3.882;2024-02-16T11:29:31;21.17;;;12.63;;
85701;SDS011;76139;50.888;3.882;2024-02-16T11:31:58;20.00;;;13.45;;
85701;SDS011;76139;50.888;3.882;2024-02-16T11:34:26;19.73;;;13.30;;
85701;SDS011;76139;50.888;3.882;2024-02-16T11:36:52;18.88;;;12.32;;
85701;SDS011;76139;50.888;3.882;2024-02-16T11:39:19;18.83;;;11.75;;
85701;SDS011;76139;50.888;3.882;2024-02-16T11:41:46;20.00;;;13.10;;
85701;SDS011;76139;50.888;3.882;2024-02-16T11:44:14;19.02;;;11.90;;
85701;SDS011;76139;50.888;3.882;2024-02-16T11:46:43;19.48;;;12.00;;
85701;SDS011;76139;50.888;3.882;2024-02-16T11:49:08;21.17;;;12.70;;
85701;SDS011;76139;50.888;3.882;2024-02-16T11:51:35;18.88;;;12.13;;
85701;SDS011;76139;50.888;3.882;2024-02-16T11:54:01;21.50;;;13.73;;
85701;SDS011;76139;50.888;3.882;2024-02-16T11:56:27;24.60;;;13.40;;
85701;SDS011;76139;50.888;3.882;2024-02-16T11:58:54;19.63;;;11.77;;
85701;SDS011;76139;50.888;3.882;2024-02-16T12:01:20;22.90;;;12.65;;
85701;SDS011;76139;50.888;3.882;2024-02-16T12:03:46;18.95;;;11.02;;
85701;SDS011;76139;50.888;3.882;2024-02-16T12:06:19;19.15;;;10.85;;
85701;SDS011;76139;50.888;3.882;2024-02-16T12:08:49;17.88;;;10.45;;
85701;SDS011;76139;50.888;3.882;2024-02-16T12:11:15;19.08;;;10.45;;
85701;SDS011;76139;50.888;3.882;2024-02-16T12:13:41;17.50;;;11.13;;
85701;SDS011;76139;50.888;3.882;2024-02-16T12:16:07;19.35;;;10.13;;
85701;SDS011;76139;50.888;3.882;2024-02-16T12:18:32;18.00;;;10.43;;
85701;SDS011;76139;50.888;3.882;2024-02-16T12:21:02;16.70;;;10.30;;
85701;SDS011;76139;50.888;3.882;2024-02-16T12:23:31;17.63;;;10.55;;
85701;SDS011;76139;50.888;3.882;2024-02-16T12:26:01;16.67;;;9.90;;
85701;SDS011;76139;50.888;3.882;2024-02-16T12:28:28;15.32;;;9.02;;
85701;SDS011;76139;50.888;3.882;2024-02-16T12:30:57;15.90;;;9.50;;
85701;SDS011;76139;50.888;3.882;2024-02-16T12:33:23;12.75;;;8.80;;
85701;SDS011;76139;50.888;3.882;2024-02-16T12:35:50;15.52;;;8.68;;
85701;SDS011;76139;50.888;3.882;2024-02-16T12:38:15;11.90;;;6.85;;
85701;SDS011;76139;50.888;3.882;2024-02-16T12:40:47;12.95;;;8.57;;
85701;SDS011;76139;50.888;3.882;2024-02-16T12:43:16;11.60;;;6.25;;
85701;SDS011;76139;50.888;3.882;2024-02-16T12:45:44;11.70;;;6.93;;
85701;SDS011;76139;50.888;3.882;2024-02-16T12:48:10;10.45;;;6.22;;
85701;SDS011;76139;50.888;3.882;2024-02-16T12:50:38;11.43;;;6.10;;
85701;SDS011;76139;50.888;3.882;2024-02-16T12:53:04;8.43;;;4.82;;
85701;SDS011;76139;50.888;3.882;2024-02-16T12:55:30;9.55;;;5.60;;
85701;SDS011;76139;50.888;3.882;2024-02-16T12:57:56;7.45;;;5.15;;
85701;SDS011;76139;50.888;3.882;2024-02-16T13:00:21;9.60;;;5.50;;
85701;SDS011;76139;50.888;3.882;2024-02-16T13:02:47;8.60;;;5.72;;
85701;SDS011;76139;50.888;3.882;2024-02-16T13:05:13;9.13;;;5.15;;
85701;SDS011;76139;50.888;3.882;2024-02-16T13:07:39;9.50;;;6.20;;
85701;SDS011;76139;50.888;3.882;2024-02-16T13:10:06;8.75;;;4.80;;
85701;SDS011;76139;50.888;3.882;2024-02-16T13:12:33;9.50;;;5.63;;
85701;SDS011;76139;50.888;3.882;2024-02-16T13:14:59;9.38;;;6.07;;
85701;SDS011;76139;50.888;3.882;2024-02-16T13:17:24;8.25;;;5.70;;
85701;SDS011;76139;50.888;3.882;2024-02-16T13:19:51;10.60;;;5.72;;
85701;SDS011;76139;50.888;3.882;2024-02-16T13:22:18;8.20;;;5.57;;
85701;SDS011;76139;50.888;3.882;2024-02-16T13:24:43;9.02;;;5.85;;
85701;SDS011;76139;50.888;3.882;2024-02-16T13:27:09;8.73;;;5.38;;
85701;SDS011;76139;50.888;3.882;2024-02-16T13:29:35;10.05;;;5.97;;
85701;SDS011;76139;50.888;3.882;2024-02-16T13:32:01;8.43;;;5.88;;
85701;SDS011;76139;50.888;3.882;2024-02-16T13:34:29;9.68;;;5.25;;
85701;SDS011;76139;50.888;3.882;2024-02-16T13:36:55;8.75;;;5.55;;
85701;SDS011;76139;50.888;3.882;2024-02-16T13:39:21;7.60;;;5.10;;
85701;SDS011;76139;50.888;3.882;2024-02-16T13:41:48;7.55;;;5.45;;
85701;SDS011;76139;50.888;3.882;2024-02-16T13:44:16;7.93;;;4.93;;
85701;SDS011;76139;50.888;3.882;2024-02-16T13:46:46;7.25;;;5.07;;
85701;SDS011;76139;50.888;3.882;2024-02-16T13:49:14;8.15;;;4.88;;
85701;SDS011;76139;50.888;3.882;2024-02-16T13:51:40;7.57;;;5.13;;
85701;SDS011;76139;50.888;3.882;2024-02-16T13:54:06;7.40;;;4.93;;
85701;SDS011;76139;50.888;3.882;2024-02-16T13:56:32;8.07;;;5.45;;
85701;SDS011;76139;50.888;3.882;2024-02-16T13:59:00;8.38;;;5.22;;
85701;SDS011;76139;50.888;3.882;2024-02-16T14:01:27;7.03;;;4.85;;
85701;SDS011;76139;50.888;3.882;2024-02-16T14:03:54;8.75;;;5.00;;
85701;SDS011;76139;50.888;3.882;2024-02-16T14:06:20;8.25;;;5.32;;
85701;SDS011;76139;50.888;3.882;2024-02-16T14:08:46;7.50;;;4.78;;
85701;SDS011;76139;50.888;3.882;2024-02-16T14:11:14;7.65;;;5.05;;
85701;SDS011;76139;50.888;3.882;2024-02-16T14:13:39;7.85;;;4.10;;
85701;SDS011;76139;50.888;3.882;2024-02-16T14:16:05;7.82;;;4.70;;
85701;SDS011;76139;50.888;3.882;2024-02-16T14:18:31;7.80;;;4.75;;
85701;SDS011;76139;50.888;3.882;2024-02-16T14:20:57;8.32;;;4.88;;
85701;SDS011;76139;50.888;3.882;2024-02-16T14:23:22;8.50;;;4.80;;
85701;SDS011;76139;50.888;3.882;2024-02-16T14:25:51;8.00;;;4.70;;
85701;SDS011;76139;50.888;3.882;2024-02-16T14:28:16;7.70;;;4.45;;
85701;SDS011;76139;50.888;3.882;2024-02-16T14:30:42;8.60;;;4.70;;
85701;SDS011;76139;50.888;3.882;2024-02-16T14:33:08;6.85;;;4.85;;
85701;SDS011;76139;50.888;3.882;2024-02-16T14:35:34;7.15;;;3.88;;
85701;SDS011;76139;50.888;3.882;2024-02-16T14:38:02;6.43;;;4.13;;
85701;SDS011;76139;50.888;3.882;2024-02-16T14:40:30;6.38;;;3.47;;
85701;SDS011;76139;50.888;3.882;2024-02-16T14:42:56;6.32;;;3.22;;